Terminal Aerodrome Forecast
Issued by NWS

Home | Current Version | Previous Version | Text Only | Print | Product List | Glossary On
Versions: 1 2 3 4 5 6 7 8 9 10 11 12 13 14 15 16 17 18 19 20 21 22 23 24 25 26 27 28
000
FTUS45 KREV 222300
TAFRNO
TAF
KRNO 222327Z 2300/2324 22012KT P6SM VCSH SCT070 BKN150
     FM230100 27013G21KT P6SM SCT120 SCT200
     FM230600 VRB04KT P6SM SKC
     FM232000 22015G23KT P6SM SKC
     FM232300 27020G28KT P6SM SKC=

USA.gov is the U.S. government's official web portal to all federal, state and local government web resources and services.